Last 24 Hours

Canyon Lodge - 8,343ft

5 Minute Data | America/Los_Angeles
as of 9/4/26 11:03 AM PDT
Date & Time Temp (°F) RH (%) Dew Pt (°F) Wet Bulb (°F) Wind Dir (°) Wind Spd (mph) Wind Gust (mph) Wind Gst Dir (°)
9/4/26 - 1100 52.4 45 31.6 43.1 SSW | 210 8.4 19.3 W | 260
9/4/26 - 1055 52.6 46 32.3 43.5 SSW | 212 8.8 21.3 SW | 228
9/4/26 - 1050 52.4 47 32.7 43.5 SSW | 198 6.3 17.3 SSW | 206
9/4/26 - 1045 52.1 47 32.3 43.2 SSW | 193 9.6 27.3 SSW | 197
9/4/26 - 1040 51.8 47 32.4 43.1 WSW | 239 6.4 17.7 W | 268
9/4/26 - 1035 51.5 47 32.0 42.8 SSW | 208 9.8 18.7 SW | 226
9/4/26 - 1030 51.6 47 32.1 42.9 SW | 219 8.9 19.0 S | 188
9/4/26 - 1025 51.8 47 32.3 43.0 SW | 216 7.5 21.5 SW | 231
9/4/26 - 1020 52.3 47 32.8 43.5 SSW | 209 6.9 22.2 SW | 215
9/4/26 - 1015 51.4 47 31.9 42.7 SW | 215 9.3 18.2 SSW | 196
9/4/26 - 1010 51.6 47 32.0 42.9 SW | 235 9.9 23.1 SW | 217
9/4/26 - 1005 51.8 47 32.3 43.1 SW | 222 9.0 26.1 WSW | 248
9/4/26 - 1000 51.5 47 32.0 42.8 SW | 218 9.6 17.4 S | 188
9/4/26 - 0955 51.4 46 31.6 42.6 SSW | 193 7.5 21.5 S | 188
9/4/26 - 0950 51.4 46 31.3 42.5 SSW | 212 6.9 18.1 SSW | 211
9/4/26 - 0945 50.4 46 30.5 41.8 WSW | 241 10.2 20.7 WSW | 258
9/4/26 - 0940 50.2 46 30.0 41.4 SSW | 212 9.0 17.1 SW | 231
9/4/26 - 0935 49.8 46 29.7 41.2 WSW | 241 7.9 19.2 WSW | 241
9/4/26 - 0930 49.1 45 28.8 40.5 SW | 236 10.2 28.4 WNW | 286
9/4/26 - 0925 49.5 45 29.1 40.8 SW | 222 10.4 20.4 S | 177
9/4/26 - 0920 48.9 45 28.8 40.4 SW | 220 8.5 20.2 SSW | 213
9/4/26 - 0915 48.9 46 28.9 40.5 SSW | 210 6.4 14.1 S | 182
9/4/26 - 0910 47.7 46 27.8 39.5 SSW | 212 8.5 16.5 S | 188
9/4/26 - 0905 47.4 46 27.7 39.3 SW | 214 8.8 21.2 S | 174
9/4/26 - 0900 47.4 46 27.4 39.2 SW | 215 9.7 21.2 WSW | 250
9/4/26 - 0855 47.0 46 27.2 38.9 SSW | 195 8.3 16.8 SSW | 192
9/4/26 - 0850 46.7 45 26.7 38.6 SSW | 203 11.3 19.7 SSW | 197
9/4/26 - 0845 46.8 46 27.2 38.8 SSW | 205 8.5 18.6 S | 189
9/4/26 - 0840 46.8 46 27.1 38.8 S | 186 9.2 22.4 SSW | 198
9/4/26 - 0835 46.6 46 26.8 38.6 SSW | 199 7.5 17.0 SSW | 200
9/4/26 - 0830 46.1 46 26.4 38.2 SSW | 209 10.0 20.8 SSW | 199
9/4/26 - 0825 46.1 46 26.6 38.2 SSW | 207 7.0 21.2 SSW | 196
9/4/26 - 0820 45.6 46 26.2 37.9 SSW | 204 8.6 34.1 S | 176
9/4/26 - 0815 44.9 46 25.6 37.3 SSW | 192 12.0 22.9 S | 188
9/4/26 - 0810 45.4 46 25.9 37.6 SSW | 203 8.8 18.3 S | 186
9/4/26 - 0805 44.9 46 25.5 37.3 SSW | 212 8.3 24.6 SSW | 194
9/4/26 - 0800 45.1 46 25.6 37.4 SSW | 201 10.2 25.9 S | 186
9/4/26 - 0755 44.8 46 25.1 37.1 SSW | 206 7.1 21.8 SSW | 192
9/4/26 - 0750 44.2 45 24.2 36.5 SSW | 192 11.7 29.7 S | 187
9/4/26 - 0745 44.0 46 24.3 36.4 SW | 217 11.4 29.7 SSW | 200
9/4/26 - 0740 43.7 46 24.3 36.3 SSW | 196 12.2 27.9 S | 186
9/4/26 - 0735 43.9 47 24.9 36.5 SSW | 211 10.8 24.4 S | 186
9/4/26 - 0730 43.8 46 24.7 36.4 SSW | 209 9.7 21.4 SSW | 204
9/4/26 - 0725 43.4 46 24.1 36.0 SSW | 195 11.3 27.4 S | 173
9/4/26 - 0720 43.7 46 24.2 36.2 SSW | 198 8.4 20.3 S | 188
9/4/26 - 0715 43.7 46 24.1 36.2 SSW | 200 9.9 27.0 S | 185
9/4/26 - 0710 43.6 45 23.7 36.0 SSW | 199 8.7 21.6 S | 182
9/4/26 - 0705 44.0 44 23.6 36.2 SW | 214 9.2 21.5 W | 273
9/4/26 - 0700 43.7 44 23.4 36.0 SSW | 211 8.2 25.5 SSW | 193
9/4/26 - 0655 43.0 44 22.9 35.4 SSW | 202 8.3 19.0 WSW | 256
9/4/26 - 0650 43.1 45 23.1 35.6 SSW | 206 8.3 20.5 S | 191
9/4/26 - 0645 42.4 44 22.1 34.9 SSW | 194 8.2 17.1 SSW | 196
9/4/26 - 0640 42.1 44 21.9 34.6 SSW | 198 10.0 21.7 SSW | 210
9/4/26 - 0635 42.1 44 21.8 34.6 S | 191 11.4 23.3 S | 185
9/4/26 - 0630 42.3 44 22.1 34.8 SSW | 198 10.6 29.9 S | 184
9/4/26 - 0625 42.6 44 22.3 35.0 SSW | 203 11.6 25.9 SSW | 194
9/4/26 - 0620 42.4 44 22.1 34.9 SSW | 196 10.3 21.8 SSW | 205
9/4/26 - 0615 42.7 44 22.3 35.1 SSW | 195 10.7 25.3 SSW | 196
9/4/26 - 0610 42.6 44 22.2 35.0 SSW | 193 8.9 18.9 S | 186
9/4/26 - 0605 42.3 44 22.0 34.8 SSW | 196 12.5 26.2 SSW | 194
9/4/26 - 0600 42.7 44 22.3 35.1 SSW | 200 9.6 21.8 S | 182
9/4/26 - 0555 43.0 44 22.6 35.4 SSW | 205 12.2 29.8 S | 171
9/4/26 - 0550 42.7 45 22.6 35.2 S | 189 9.8 21.2 S | 188
9/4/26 - 0545 42.8 45 23.1 35.4 SSW | 203 11.0 22.8 SSW | 204
9/4/26 - 0540 43.0 45 23.3 35.6 SSW | 208 10.0 23.1 SSW | 197
9/4/26 - 0535 42.8 45 23.0 35.4 SSW | 201 8.3 22.2 S | 187
9/4/26 - 0530 42.9 45 22.9 35.4 SSW | 195 7.9 17.6 SSE | 158
9/4/26 - 0525 42.9 44 22.7 35.4 SSW | 205 8.3 19.8 S | 190
9/4/26 - 0520 43.0 44 22.8 35.4 SSW | 194 7.3 21.5 S | 177
9/4/26 - 0515 43.0 45 23.2 35.5 SSW | 204 7.0 20.0 SSE | 168
9/4/26 - 0510 43.0 45 23.1 35.5 SSW | 210 8.4 23.4 SSW | 210
9/4/26 - 0505 43.1 45 23.1 35.6 SSW | 196 9.8 23.7 S | 174
9/4/26 - 0500 43.3 45 23.1 35.6 SSW | 194 8.3 17.8 SSW | 193
9/4/26 - 0455 43.3 44 22.9 35.6 SW | 218 8.2 22.5 SSW | 208
9/4/26 - 0450 43.4 43 22.6 35.6 SSW | 199 8.3 26.0 SSW | 203
9/4/26 - 0445 43.2 43 22.4 35.4 SSW | 203 7.3 16.6 SW | 214
9/4/26 - 0440 43.3 43 22.4 35.4 SSW | 199 6.5 16.1 SW | 224
9/4/26 - 0435 43.4 43 22.6 35.6 SSW | 194 9.0 23.3 S | 187
9/4/26 - 0430 43.3 43 22.5 35.5 SSW | 204 8.1 18.4 S | 172
9/4/26 - 0425 43.7 44 23.2 35.9 SW | 220 9.5 21.2 W | 273
9/4/26 - 0420 43.6 44 23.3 35.9 SSW | 198 11.2 23.9 SSW | 194
9/4/26 - 0415 43.3 44 23.1 35.6 SSW | 197 8.3 24.7 S | 190
9/4/26 - 0410 43.2 44 22.8 35.5 SSW | 209 6.8 18.8 S | 175
9/4/26 - 0405 43.4 44 23.0 35.7 SW | 214 7.7 20.2 SSW | 212
9/4/26 - 0400 43.4 44 22.9 35.7 SSW | 204 10.5 26.8 SSW | 197
9/4/26 - 0355 43.4 44 22.7 35.6 SSW | 200 6.2 20.6 SSW | 196
9/4/26 - 0350 43.3 44 22.6 35.5 SSW | 202 7.1 15.7 SSW | 192
9/4/26 - 0345 43.3 44 22.6 35.5 S | 189 8.4 22.2 S | 184
9/4/26 - 0340 43.4 44 22.8 35.6 SW | 229 7.9 17.5 WSW | 249
9/4/26 - 0335 43.7 43 23.0 35.9 SSW | 212 10.6 22.3 SSW | 210
9/4/26 - 0330 43.7 43 22.8 35.8 SSW | 199 5.8 20.1 S | 186
9/4/26 - 0325 43.4 43 22.2 35.5 SSW | 199 7.7 16.5 SSW | 195
9/4/26 - 0320 43.5 42 21.8 35.4 SSW | 200 6.9 16.9 SSW | 196
9/4/26 - 0315 43.3 42 21.7 35.3 SSW | 211 8.1 20.3 SSW | 196
9/4/26 - 0310 43.6 42 22.0 35.6 SSW | 207 7.8 27.1 S | 182
9/4/26 - 0305 43.5 42 22.1 35.5 SW | 215 7.0 21.5 WSW | 257
9/4/26 - 0300 43.5 42 22.1 35.5 SSW | 208 10.0 27.4 S | 178
9/4/26 - 0255 43.6 43 22.4 35.6 SSW | 203 8.1 19.0 SSE | 155
9/4/26 - 0250 43.6 42 22.3 35.6 SSW | 208 10.3 20.4 S | 175
9/4/26 - 0245 43.8 43 22.9 35.9 SSW | 192 8.2 21.0 S | 182
9/4/26 - 0240 44.0 43 22.8 36.0 SSW | 208 7.9 16.9 SSE | 150
9/4/26 - 0235 44.2 42 22.8 36.1 SSW | 213 7.0 17.0 SW | 222
9/4/26 - 0230 44.3 42 22.8 36.2 SSW | 207 8.2 18.5 SSW | 202
9/4/26 - 0225 44.1 42 22.6 36.0 S | 188 7.1 23.1 SSW | 195
9/4/26 - 0220 44.3 42 22.8 36.2 SSW | 211 7.9 20.4 SW | 233
9/4/26 - 0215 44.6 43 23.4 36.5 SSW | 213 9.6 24.2 W | 270
9/4/26 - 0210 44.6 43 23.3 36.4 SW | 223 5.4 17.4 WSW | 256
9/4/26 - 0205 44.6 42 23.1 36.4 SW | 220 7.3 18.1 WSW | 242
9/4/26 - 0200 44.2 42 22.5 36.0 S | 191 5.9 20.5 S | 180
9/4/26 - 0155 44.0 42 22.2 35.8 SSW | 203 7.6 18.8 SSW | 196
9/4/26 - 0150 44.1 42 22.6 36.0 SW | 230 7.8 20.5 S | 186
9/4/26 - 0145 44.0 42 22.6 35.9 SSW | 200 8.2 20.9 WNW | 282
9/4/26 - 0140 43.8 42 22.5 35.8 SW | 219 5.7 19.6 SSW | 192
9/4/26 - 0135 43.6 42 22.3 35.6 SW | 225 4.8 12.9 W | 276
9/4/26 - 0130 43.7 42 22.1 35.6 WSW | 242 5.0 17.1 S | 185
9/4/26 - 0125 43.5 41 21.5 35.4 SSW | 202 4.5 12.2 SW | 226
9/4/26 - 0120 43.5 41 21.4 35.3 SSW | 207 6.7 17.8 S | 188
9/4/26 - 0115 43.5 41 21.5 35.3 SSW | 199 6.4 15.3 SW | 219
9/4/26 - 0110 43.5 41 21.6 35.4 S | 186 6.5 18.1 S | 177
9/4/26 - 0105 43.3 41 21.3 35.2 SSW | 197 6.7 17.8 S | 186
9/4/26 - 0100 43.4 41 21.3 35.2 SW | 214 6.1 16.0 WSW | 247
9/4/26 - 0055 43.4 41 21.2 35.2 SSW | 208 6.3 16.7 S | 181
9/4/26 - 0050 43.4 41 21.0 35.2 S | 185 7.2 16.2 S | 174
9/4/26 - 0045 43.5 41 21.4 35.3 S | 180 6.4 17.0 SSE | 164
9/4/26 - 0040 43.5 41 21.5 35.3 SW | 215 5.3 14.1 SW | 223
9/4/26 - 0035 43.3 41 21.2 35.1 SSW | 194 9.0 19.2 S | 186
9/4/26 - 0030 43.4 41 21.2 35.2 S | 184 6.5 23.3 S | 174
9/4/26 - 0025 43.5 41 21.4 35.3 SSW | 200 8.2 18.5 SSW | 200
9/4/26 - 0020 43.6 41 21.5 35.4 SSW | 208 7.0 18.3 S | 179
9/4/26 - 0015 43.6 41 21.5 35.4 SSW | 208 4.7 13.2 WNW | 298
9/4/26 - 0010 43.8 41 21.6 35.6 SSW | 211 7.5 18.4 S | 179
9/4/26 - 0005 43.6 41 21.3 35.4 SW | 218 6.2 15.7 SSW | 197
9/4/26 - 0000 43.6 41 21.4 35.4 SW | 232 5.1 15.0 WSW | 257
9/3/26 - 2355 43.4 41 21.0 35.2 SSW | 206 5.5 20.4 SSE | 154
9/3/26 - 2350 43.4 41 21.1 35.2 SSW | 208 7.5 21.7 S | 170
9/3/26 - 2345 43.5 41 21.1 35.2 SSW | 208 7.9 22.8 S | 180
9/3/26 - 2340 43.4 40 20.8 35.1 S | 189 4.8 13.5 S | 182
9/3/26 - 2335 43.3 40 20.6 35.0 SSW | 201 3.6 11.7 S | 186
9/3/26 - 2330 43.2 40 20.3 34.8 S | 179 4.9 18.4 S | 172
9/3/26 - 2325 43.5 40 20.8 35.2 SSW | 201 7.5 18.4 S | 173
9/3/26 - 2320 43.5 40 20.7 35.1 SSW | 206 5.1 17.1 SW | 214
9/3/26 - 2315 43.6 40 20.8 35.2 S | 180 4.8 17.5 SSE | 158
9/3/26 - 2310 44.0 40 21.2 35.5 SW | 215 7.2 20.5 W | 259
9/3/26 - 2305 43.7 40 20.9 35.3 SSW | 198 5.8 14.8 S | 185
9/3/26 - 2300 43.8 40 20.8 35.4 SSW | 203 4.5 19.2 S | 172
9/3/26 - 2255 43.7 40 20.7 35.3 S | 185 4.2 12.2 S | 186
9/3/26 - 2250 44.0 39 20.9 35.4 SSW | 209 6.2 14.2 SSW | 197
9/3/26 - 2245 43.8 40 20.8 35.4 SSW | 201 4.6 14.7 S | 176
9/3/26 - 2240 43.9 40 21.0 35.4 SSW | 199 6.2 18.9 SE | 145
9/3/26 - 2235 43.8 40 20.9 35.4 SSW | 209 6.1 17.8 S | 176
9/3/26 - 2230 43.7 40 20.8 35.3 SSW | 203 5.0 11.4 S | 174
9/3/26 - 2225 44.0 39 20.8 35.4 SSW | 200 5.7 19.8 SSW | 203
9/3/26 - 2220 44.1 39 20.6 35.4 SW | 231 5.0 13.4 SW | 224
9/3/26 - 2215 44.1 39 20.7 35.5 SSW | 196 4.6 14.2 S | 173
9/3/26 - 2210 44.2 39 20.8 35.6 SSW | 205 4.6 12.5 SW | 215
9/3/26 - 2205 44.3 39 20.9 35.6 SSW | 200 5.3 13.8 S | 172
9/3/26 - 2200 44.3 39 20.8 35.6 S | 186 6.4 21.1 S | 171
9/3/26 - 2155 44.2 39 21.0 35.6 SW | 226 5.9 16.5 SSW | 197
9/3/26 - 2150 44.0 39 20.7 35.4 SSW | 198 7.6 18.9 SW | 220
9/3/26 - 2145 44.2 39 21.0 35.6 SSW | 200 4.8 15.2 SSW | 192
9/3/26 - 2140 44.4 39 21.3 35.8 SSW | 204 6.3 18.5 S | 174
9/3/26 - 2135 44.8 40 21.8 36.1 SSW | 207 6.2 16.1 S | 180
9/3/26 - 2130 45.0 40 22.2 36.4 SW | 229 5.6 13.1 WSW | 258
9/3/26 - 2125 44.8 40 21.9 36.2 SSW | 195 8.0 23.0 S | 187
9/3/26 - 2120 45.0 40 22.1 36.4 SSW | 206 7.3 19.8 S | 177
9/3/26 - 2115 45.1 40 22.1 36.4 SSW | 200 4.8 13.7 S | 170
9/3/26 - 2110 45.2 40 22.2 36.4 SW | 228 4.9 14.7 SE | 144
9/3/26 - 2105 45.2 40 22.2 36.4 SW | 220 6.5 13.6 WSW | 242
9/3/26 - 2100 45.3 40 22.4 36.6 SW | 218 8.6 20.8 S | 182
9/3/26 - 2055 45.4 40 22.5 36.6 SW | 221 5.9 18.8 S | 184
9/3/26 - 2050 45.3 40 22.2 36.5 SSW | 206 3.1 12.1 WSW | 237
9/3/26 - 2045 45.4 40 22.4 36.6 SSW | 213 4.2 15.6 S | 182
9/3/26 - 2040 45.6 40 22.7 36.8 SW | 228 5.2 12.2 SSW | 196
9/3/26 - 2035 45.6 40 22.6 36.8 SW | 231 5.0 14.7 WNW | 294
9/3/26 - 2030 45.6 40 22.6 36.8 SW | 216 5.7 11.2 SW | 233
9/3/26 - 2025 45.7 40 22.6 36.9 WSW | 237 5.6 19.2 SW | 232
9/3/26 - 2020 45.8 40 22.9 37.0 WSW | 246 9.9 19.2 WSW | 249
9/3/26 - 2015 45.7 40 22.7 36.9 WSW | 241 8.6 17.3 WSW | 247
9/3/26 - 2010 45.9 40 22.7 37.0 SW | 219 8.8 21.0 S | 180
9/3/26 - 2005 46.0 40 22.8 37.1 WSW | 242 9.0 23.4 W | 267
9/3/26 - 2000 46.2 40 23.1 37.3 SW | 216 8.0 20.8 S | 187
9/3/26 - 1955 46.2 40 23.1 37.3 SW | 231 9.7 21.2 W | 271
9/3/26 - 1950 46.4 40 23.3 37.5 SW | 217 7.9 18.6 W | 273
9/3/26 - 1945 46.6 39 23.2 37.5 SW | 229 7.0 20.6 SW | 228
9/3/26 - 1940 46.6 40 23.3 37.5 SW | 228 7.2 19.4 W | 265
9/3/26 - 1935 46.8 40 23.6 37.7 WSW | 242 9.3 20.3 WSW | 250
9/3/26 - 1930 46.9 40 23.6 37.8 WSW | 247 8.4 17.7 SW | 233
9/3/26 - 1925 47.1 40 23.8 38.0 WSW | 241 7.6 20.0 W | 263
9/3/26 - 1920 47.3 39 23.6 38.0 SW | 230 7.2 13.1 WSW | 246
9/3/26 - 1915 47.4 39 23.7 38.1 SW | 218 5.9 18.0 W | 272
9/3/26 - 1910 47.5 39 23.8 38.2 S | 191 6.9 20.8 S | 189
9/3/26 - 1905 47.7 39 24.0 38.3 SSW | 201 7.8 16.3 S | 180
9/3/26 - 1900 47.8 39 24.2 38.4 S | 191 7.0 16.9 SSW | 196
9/3/26 - 1855 48.1 39 24.5 38.7 SSW | 197 7.1 19.0 S | 174
9/3/26 - 1850 48.2 40 24.8 38.8 S | 184 4.8 12.9 SSW | 204
9/3/26 - 1845 48.3 40 25.1 39.0 SSW | 210 6.0 18.3 S | 172
9/3/26 - 1840 48.4 40 25.0 39.0 SW | 216 7.5 16.7 SW | 231
9/3/26 - 1835 48.7 40 25.2 39.2 SSW | 204 4.2 16.8 SSW | 198
9/3/26 - 1830 48.9 40 25.4 39.3 SW | 221 6.9 13.4 W | 278
9/3/26 - 1825 49.1 39 25.5 39.5 SW | 223 7.6 20.9 SSW | 196
9/3/26 - 1820 49.3 39 25.7 39.6 SSW | 213 7.0 18.1 WSW | 243
9/3/26 - 1815 49.5 40 26.2 39.9 SSW | 212 6.3 20.8 SSW | 192
9/3/26 - 1810 49.8 40 26.6 40.2 SSW | 199 4.5 19.8 SSW | 192
9/3/26 - 1805 49.8 40 26.8 40.2 SW | 236 5.1 17.7 SW | 234
9/3/26 - 1800 50.2 41 27.5 40.6 SW | 217 4.7 17.7 WSW | 246
9/3/26 - 1755 50.5 41 27.9 40.9 SSW | 192 7.6 22.0 SSW | 192
9/3/26 - 1750 50.8 42 28.3 41.2 SSW | 198 7.6 18.0 SSE | 157
9/3/26 - 1745 51.1 41 28.4 41.4 SSW | 205 6.5 24.8 S | 179
9/3/26 - 1740 51.0 42 28.7 41.4 SW | 226 8.1 22.2 SSW | 202
9/3/26 - 1735 51.6 41 28.7 41.7 SSW | 213 7.6 18.5 S | 177
9/3/26 - 1730 51.4 41 28.5 41.5 SW | 215 8.7 22.1 WSW | 246
9/3/26 - 1725 52.0 41 28.9 42.0 SW | 218 4.8 15.0 SW | 234
9/3/26 - 1720 52.6 39 28.7 42.2 SW | 222 5.6 12.3 WSW | 246
9/3/26 - 1715 52.3 39 28.1 41.9 SW | 226 7.6 19.4 W | 260
9/3/26 - 1710 52.7 40 29.0 42.3 SW | 224 7.2 18.7 WNW | 287
9/3/26 - 1705 52.8 40 28.9 42.4 SW | 218 4.9 13.5 SSW | 212
9/3/26 - 1700 52.8 40 29.4 42.5 SW | 233 6.4 16.6 WSW | 251
9/3/26 - 1655 52.8 42 30.3 42.8 SW | 228 9.0 20.1 S | 183
9/3/26 - 1650 53.1 42 30.5 43.0 SW | 234 8.0 17.0 SW | 222
9/3/26 - 1645 52.9 42 30.4 42.9 SW | 233 7.0 25.1 W | 265
9/3/26 - 1640 53.7 41 30.6 43.4 SW | 227 7.7 18.1 WSW | 243
9/3/26 - 1635 54.4 39 30.2 43.6 SW | 218 3.6 11.8 SSW | 201
9/3/26 - 1630 54.3 39 29.7 43.3 SW | 226 5.5 23.6 WSW | 250
9/3/26 - 1625 54.3 38 29.6 43.3 SW | 222 8.5 19.3 SW | 222
9/3/26 - 1620 54.4 38 29.7 43.4 S | 189 7.5 22.9 S | 182
9/3/26 - 1615 54.6 39 30.0 43.6 SW | 222 6.4 21.2 WSW | 240
9/3/26 - 1610 54.8 39 30.5 43.8 SSW | 203 4.8 16.4 SSW | 208
9/3/26 - 1605 54.8 40 30.9 44.0 SSW | 202 7.0 18.2 SW | 228
9/3/26 - 1600 54.1 41 31.1 43.7 SSW | 212 9.0 27.0 S | 177
9/3/26 - 1555 54.5 41 31.2 44.0 S | 191 8.2 20.2 S | 187
9/3/26 - 1550 55.2 39 30.7 44.1 SSW | 196 8.5 21.3 S | 173
9/3/26 - 1545 55.4 40 31.4 44.4 SSW | 203 7.2 19.6 SSW | 195
9/3/26 - 1540 55.4 41 32.1 44.6 SSW | 205 6.9 16.3 S | 191
9/3/26 - 1535 55.0 39 30.5 43.9 S | 190 9.5 24.9 SE | 138
9/3/26 - 1530 54.9 39 30.2 43.8 SSW | 193 8.7 18.9 S | 188
9/3/26 - 1525 55.4 39 30.7 44.2 S | 171 11.1 36.1 SSE | 164
9/3/26 - 1520 54.8 39 30.4 43.8 S | 188 8.9 24.8 SE | 146
9/3/26 - 1515 54.9 39 30.5 43.9 S | 176 9.7 22.2 S | 178
9/3/26 - 1510 55.5 40 31.3 44.4 S | 182 8.9 22.2 S | 179
9/3/26 - 1505 55.1 39 30.7 44.1 S | 188 9.7 24.3 SSE | 160
9/3/26 - 1500 55.7 39 31.3 44.5 S | 182 7.4 19.2 S | 183
9/3/26 - 1455 55.2 40 31.2 44.3 S | 171 11.1 25.0 S | 182
9/3/26 - 1450 55.5 41 32.3 44.8 SSW | 192 9.7 21.3 SSW | 192
9/3/26 - 1445 54.7 43 32.6 44.5 S | 180 12.7 25.6 SSW | 193
9/3/26 - 1440 56.1 43 33.8 45.6 SSW | 195 5.6 19.6 SSE | 165
9/3/26 - 1435 56.0 42 33.5 45.4 SSW | 195 7.5 24.7 SSW | 198
9/3/26 - 1430 56.8 42 34.1 46.0 S | 181 6.9 23.3 SW | 216
9/3/26 - 1425 56.9 42 34.0 46.0 SSW | 193 6.9 19.0 S | 174
9/3/26 - 1420 56.2 42 33.2 45.4 S | 191 9.0 19.0 S | 184
9/3/26 - 1415 57.0 41 33.8 46.0 SSW | 208 6.4 19.2 SSW | 192
9/3/26 - 1410 57.0 40 33.1 45.7 S | 191 7.7 17.2 S | 170
9/3/26 - 1405 55.6 41 32.1 44.8 SW | 222 7.5 18.9 SSW | 207
9/3/26 - 1400 56.3 41 33.2 45.5 S | 180 8.1 19.1 S | 190
9/3/26 - 1355 56.0 41 32.5 45.1 SSW | 206 9.8 23.4 SW | 230
9/3/26 - 1350 55.3 40 31.2 44.3 SSW | 193 12.2 25.3 SSE | 165
9/3/26 - 1345 55.6 40 31.6 44.6 SSW | 198 8.8 22.8 SW | 222
9/3/26 - 1340 55.5 40 31.5 44.5 SSW | 195 9.7 19.5 SSW | 192
9/3/26 - 1335 55.7 40 31.6 44.6 SSW | 195 10.6 25.5 SSW | 193
9/3/26 - 1330 55.7 40 31.7 44.6 SSW | 200 10.1 21.6 S | 185
9/3/26 - 1325 55.4 40 31.5 44.4 SSW | 207 10.1 24.8 SSW | 195
9/3/26 - 1320 56.4 40 32.6 45.3 SSW | 199 8.9 23.6 S | 176
9/3/26 - 1315 55.4 40 31.8 44.5 S | 179 9.8 28.7 SSE | 150
9/3/26 - 1310 55.6 41 32.3 44.8 SSW | 194 9.7 24.0 S | 189
9/3/26 - 1305 55.0 42 32.2 44.5 SSW | 199 10.9 28.0 SSW | 198
9/3/26 - 1300 56.1 43 33.8 45.6 SSW | 207 6.6 20.6 SE | 134
9/3/26 - 1255 54.8 43 32.7 44.6 SSW | 195 10.7 29.4 S | 188
9/3/26 - 1250 55.1 44 33.6 45.1 SSW | 198 11.5 24.3 S | 190
9/3/26 - 1245 55.6 44 34.2 45.6 S | 185 9.7 27.3 S | 189
9/3/26 - 1240 54.9 44 33.6 45.0 S | 189 6.7 19.9 SSW | 198
9/3/26 - 1235 54.3 44 33.1 44.5 SSW | 204 10.1 22.0 S | 190
9/3/26 - 1230 55.2 44 33.9 45.3 SSW | 209 6.9 15.6 S | 190
9/3/26 - 1225 54.9 44 33.6 45.0 SSW | 195 10.8 25.3 S | 184
9/3/26 - 1220 54.4 44 33.1 44.6 SSW | 200 10.6 21.6 SW | 229
9/3/26 - 1215 54.9 43 33.1 44.8 S | 183 9.8 21.2 SE | 143
9/3/26 - 1210 54.7 43 32.7 44.6 SSW | 202 9.4 18.1 SW | 215
9/3/26 - 1205 54.6 44 33.2 44.7 SSW | 205 8.6 18.8 SSE | 156
9/3/26 - 1200 54.5 43 32.4 44.4 SSW | 209 7.7 21.6 SSE | 156
9/3/26 - 1155 54.2 42 31.5 43.9 SW | 216 8.3 21.6 SSW | 194
9/3/26 - 1150 54.5 42 32.2 44.3 SSW | 193 10.6 25.9 SSE | 160
9/3/26 - 1145 54.2 42 31.8 44.0 SSW | 198 9.7 26.5 S | 185
9/3/26 - 1140 54.2 43 32.0 44.1 SSW | 202 8.3 22.0 SSW | 195
9/3/26 - 1135 53.8 42 31.3 43.6 SSW | 209 9.3 23.4 SSW | 198
9/3/26 - 1130 53.4 42 30.7 43.2 SSW | 202 9.5 24.6 SSE | 160
9/3/26 - 1125 53.5 42 31.0 43.4 SSW | 192 8.4 20.1 SSW | 199
9/3/26 - 1120 52.8 42 30.5 42.9 SSW | 205 9.3 23.2 WSW | 254
9/3/26 - 1115 53.1 43 31.0 43.2 SSW | 196 8.2 21.9 SSW | 198
9/3/26 - 1110 53.0 43 31.3 43.3 SSW | 201 7.8 22.6 SSW | 199
9/3/26 - 1105 53.5 42 31.0 43.4 S | 182 7.6 21.2 SSE | 166
9/3/26 - 1100 53.1 42 30.9 43.2 S | 182 9.6 22.9 SSE | 159
Max 57.0 47 34.2 46.0 - 12.7 36.1 -
Avg 47.9 42 26.0 39.0 - 7.9 20.1 -
Min 42.1 38 20.3 34.6 - 3.1 11.2 -